Time;durP1;ratioP1;P1;durP2;ratioP2;P2;SDS_P1;SDS_P2;PMS_P1;PMS_P2;Temp;Humidity;BMP_temperature;BMP_pressure;BME280_temperature;BME280_humidity;BME280_pressure;Samples;Min_cycle;Max_cycle;Signal;HPM_P1;HPM_P2
2023/03/29 00:02:28;;;;;;;3.80;1.70;;;;;;;5.44;60.79;101139.48;105733;1257;61380;-71
2023/03/29 00:05:00;;;;;;;4.60;1.40;;;;;;;5.43;60.82;101139.20;105797;1253;61238;-75
2023/03/29 00:07:29;;;;;;;4.30;1.30;;;;;;;5.43;61.00;101135.16;105733;1257;73265;-71
2023/03/29 00:09:55;;;;;;;5.30;1.60;;;;;;;5.43;60.84;101133.94;105905;1254;71184;-74
2023/03/29 00:12:22;;;;;;;5.00;1.50;;;;;;;5.42;60.77;101132.94;105831;1252;71099;-70
2023/03/29 00:14:48;;;;;;;3.00;1.30;;;;;;;5.42;60.70;101126.84;105788;1257;61274;-71
2023/03/29 00:17:15;;;;;;;4.70;1.60;;;;;;;5.42;60.62;101121.21;105968;1252;61789;-72
2023/03/29 00:19:43;;;;;;;3.80;1.40;;;;;;;5.42;60.67;101118.75;105756;1253;73602;-72
2023/03/29 00:22:10;;;;;;;4.70;1.50;;;;;;;5.42;60.89;101114.85;105731;1253;70912;-70
2023/03/29 00:24:37;;;;;;;5.10;1.40;;;;;;;5.41;60.82;101115.81;105859;1253;72810;-71
2023/03/29 00:27:04;;;;;;;4.20;1.30;;;;;;;5.40;60.88;101113.43;105756;1254;61258;-71
2023/03/29 00:29:31;;;;;;;3.00;1.10;;;;;;;5.40;60.78;101105.77;105957;1254;61459;-72
2023/03/29 00:31:58;;;;;;;5.20;1.70;;;;;;;5.38;60.88;101111.02;105768;1257;74941;-73
2023/03/29 00:34:29;;;;;;;5.40;1.80;;;;;;;5.37;60.79;101110.81;105815;1257;69960;-73
2023/03/29 00:36:57;;;;;;;5.00;1.80;;;;;;;5.36;60.95;101107.02;105855;1255;71764;-73
2023/03/29 00:39:26;;;;;;;5.70;1.60;;;;;;;5.35;61.10;101107.65;105686;1257;61381;-73
2023/03/29 00:41:53;;;;;;;4.00;1.40;;;;;;;5.35;61.26;101107.45;105779;1255;62038;-71
2023/03/29 00:44:57;;;;;;;6.10;1.70;;;;;;;5.34;61.31;101101.59;105565;1253;72610;-73
2023/03/29 00:47:44;;;;;;;5.20;1.60;;;;;;;5.32;61.41;101097.52;105750;1253;71397;-69
2023/03/29 00:50:15;;;;;;;4.20;1.60;;;;;;;5.29;61.45;101096.47;105729;1257;71405;-71
2023/03/29 00:52:47;;;;;;;3.40;1.30;;;;;;;5.28;61.44;101094.66;105760;1254;61276;-71
2023/03/29 00:55:18;;;;;;;9.00;1.80;;;;;;;5.26;61.59;101088.98;105884;1254;61369;-72
2023/03/29 00:57:46;;;;;;;4.80;1.80;;;;;;;5.25;61.70;101086.64;105744;1257;74788;-67
2023/03/29 01:00:19;;;;;;;4.60;1.70;;;;;;;5.25;61.79;101083.87;105637;1254;69994;-72
2023/03/29 01:02:52;;;;;;;4.90;1.60;;;;;;;5.25;61.92;101081.96;105731;1256;72532;-74
2023/03/29 01:05:33;;;;;;;7.20;1.90;;;;;;;5.24;61.87;101073.77;105826;1254;61552;-70
2023/03/29 01:08:07;;;;;;;5.90;1.70;;;;;;;5.24;61.83;101073.05;105806;1254;61352;-72
2023/03/29 01:11:01;;;;;;;6.30;1.80;;;;;;;5.24;61.78;101066.04;105823;1257;74829;-73
2023/03/29 01:13:41;;;;;;;5.90;1.60;;;;;;;5.25;61.77;101060.18;105897;1252;71376;-71
2023/03/29 01:16:10;;;;;;;4.60;1.60;;;;;;;5.26;61.70;101060.09;105822;1258;72631;-71
2023/03/29 01:18:37;;;;;;;5.00;1.80;;;;;;;5.27;61.83;101052.88;105731;1257;61832;-73
2023/03/29 01:21:13;;;;;;;6.70;2.00;;;;;;;5.28;61.68;101050.14;105784;1254;61376;-74
2023/03/29 01:23:53;;;;;;;4.10;1.70;;;;;;;5.29;61.69;101046.31;105776;1256;74693;-70
2023/03/29 01:26:40;;;;;;;6.40;2.10;;;;;;;5.31;61.64;101036.86;105779;1254;70916;-70
2023/03/29 01:29:14;;;;;;;5.60;1.80;;;;;;;5.32;61.82;101032.42;105637;1254;71164;-71
2023/03/29 01:31:46;;;;;;;5.10;1.70;;;;;;;5.32;61.69;101031.18;105824;1258;61245;-71
2023/03/29 01:34:27;;;;;;;6.40;1.80;;;;;;;5.31;61.80;101029.36;105657;1254;61299;-74
2023/03/29 01:37:03;;;;;;;5.80;1.50;;;;;;;5.29;61.95;101028.98;105882;1256;73570;-71
2023/03/29 01:39:33;;;;;;;4.50;1.60;;;;;;;5.27;61.96;101028.10;105822;1257;70014;-73
2023/03/29 01:42:23;;;;;;;6.40;1.60;;;;;;;5.24;62.20;101030.48;105902;1255;71164;-70
2023/03/29 01:44:55;;;;;;;5.10;1.70;;;;;;;5.20;62.44;101026.25;105953;1253;62274;-71
2023/03/29 01:47:35;;;;;;;6.30;1.90;;;;;;;5.17;62.67;101022.51;105871;1252;61447;-71
2023/03/29 01:50:15;;;;;;;6.70;1.90;;;;;;;5.13;62.98;101022.68;105768;1253;75065;-72
2023/03/29 01:52:55;;;;;;;5.20;2.00;;;;;;;5.10;63.23;101020.29;105730;1255;69733;-71
2023/03/29 01:55:34;;;;;;;6.60;2.00;;;;;;;5.10;63.54;101025.39;105762;1253;72381;-70
2023/03/29 01:58:04;;;;;;;5.10;2.00;;;;;;;5.11;63.95;101022.09;105755;1254;61938;-71
2023/03/29 02:00:33;;;;;;;4.60;2.20;;;;;;;5.13;64.36;101018.09;105824;1257;61373;-70
2023/03/29 02:03:05;;;;;;;4.30;1.80;;;;;;;5.17;64.44;101016.55;105723;1253;73188;-70
2023/03/29 02:05:34;;;;;;;6.20;2.60;;;;;;;5.20;64.79;101020.66;105788;1254;71174;-70
2023/03/29 02:08:04;;;;;;;6.00;2.20;;;;;;;5.20;65.35;101021.66;105721;1253;71811;-70
2023/03/29 02:10:33;;;;;;;5.60;2.10;;;;;;;5.21;65.82;101014.79;105770;1256;61762;-71
2023/03/29 02:12:59;;;;;;;5.20;2.40;;;;;;;5.25;65.93;101012.19;105630;1256;61653;-71
2023/03/29 02:15:26;;;;;;;6.00;2.10;;;;;;;5.26;66.13;101006.48;105843;1253;73196;-70
2023/03/29 02:17:55;;;;;;;6.20;2.30;;;;;;;5.26;66.49;101004.00;105794;1255;69144;-70
2023/03/29 02:20:30;;;;;;;5.40;2.30;;;;;;;5.29;66.50;101002.17;105699;1254;70858;-70
2023/03/29 02:23:14;;;;;;;5.90;2.30;;;;;;;5.29;66.78;100998.11;105839;1253;61405;-72
2023/03/29 02:25:44;;;;;;;5.30;2.30;;;;;;;5.28;67.10;100998.88;105682;1257;61736;-71
2023/03/29 02:28:11;;;;;;;7.60;2.40;;;;;;;5.27;67.63;100992.88;105842;1253;74688;-70
2023/03/29 02:31:24;;;;;;;5.00;2.60;;;;;;;5.26;67.90;100998.70;105997;1255;70041;-71
2023/03/29 02:33:51;;;;;;;4.90;2.20;;;;;;;5.27;68.08;100995.13;105697;1253;71705;-71
2023/03/29 02:36:33;;;;;;;6.60;2.30;;;;;;;5.26;68.61;100994.03;105712;1254;61388;-73
2023/03/29 02:39:03;;;;;;;4.30;2.10;;;;;;;5.24;69.11;100989.62;105736;1253;61359;-72
2023/03/29 02:41:31;;;;;;;6.60;2.60;;;;;;;5.23;69.31;100987.08;105774;1253;73270;-71
2023/03/29 02:44:00;;;;;;;5.70;2.40;;;;;;;5.23;69.19;100987.78;105803;1256;69715;-70
2023/03/29 02:46:27;;;;;;;4.20;2.40;;;;;;;5.21;69.54;100991.77;105713;1253;71565;-72
2023/03/29 02:48:54;;;;;;;5.80;2.30;;;;;;;5.21;69.57;100986.56;105785;1253;61337;-71
2023/03/29 02:51:27;;;;;;;5.90;2.50;;;;;;;5.20;69.93;100984.17;105730;1254;61533;-70
2023/03/29 02:54:14;;;;;;;6.40;2.30;;;;;;;5.21;69.99;100983.21;105735;1257;73693;-71
2023/03/29 02:56:47;;;;;;;6.00;2.50;;;;;;;5.21;70.27;100982.46;105816;1254;70261;-71
2023/03/29 02:59:16;;;;;;;6.40;2.50;;;;;;;5.20;70.53;100976.81;105711;1253;73398;-70
2023/03/29 03:01:43;;;;;;;5.60;2.50;;;;;;;5.18;70.75;100975.95;105712;1260;61234;-69
2023/03/29 03:04:11;;;;;;;6.10;2.50;;;;;;;5.17;70.85;100969.35;105842;1254;61274;-71
2023/03/29 03:06:39;;;;;;;5.60;2.40;;;;;;;5.16;70.94;100966.46;105946;1257;74491;-70
2023/03/29 03:09:06;;;;;;;6.40;2.70;;;;;;;5.13;70.91;100964.27;105669;1253;70906;-73
2023/03/29 03:11:33;;;;;;;7.10;3.10;;;;;;;5.09;71.31;100962.83;105907;1257;72651;-73
2023/03/29 03:13:59;;;;;;;6.40;3.10;;;;;;;5.03;72.32;100964.40;105848;1254;61664;-71
2023/03/29 03:16:26;;;;;;;5.60;2.70;;;;;;;4.98;73.01;100960.16;105978;1253;60239;-74
2023/03/29 03:18:54;;;;;;;4.70;2.80;;;;;;;4.93;73.66;100957.47;105991;1257;73701;-71
2023/03/29 03:21:21;;;;;;;5.70;2.90;;;;;;;4.86;74.43;100954.84;105831;1253;69979;-70
2023/03/29 03:23:48;;;;;;;6.70;3.20;;;;;;;4.81;75.42;100953.52;106002;1252;73666;-71
2023/03/29 03:26:16;;;;;;;7.60;3.20;;;;;;;4.80;75.39;100951.15;105690;1253;61254;-70
2023/03/29 03:28:44;;;;;;;5.60;3.10;;;;;;;4.78;76.12;100945.04;105894;1253;61336;-71
2023/03/29 03:31:14;;;;;;;7.20;3.40;;;;;;;4.75;77.08;100942.45;105907;1255;75137;-70
2023/03/29 03:33:41;;;;;;;5.90;3.30;;;;;;;4.73;77.17;100936.18;105846;1257;69656;-71
2023/03/29 03:36:09;;;;;;;4.40;2.90;;;;;;;4.72;77.23;100936.05;105641;1255;71735;-72
2023/03/29 03:38:37;;;;;;;7.20;3.60;;;;;;;4.68;78.17;100935.36;105822;1253;61230;-71
2023/03/29 03:41:08;;;;;;;5.90;3.30;;;;;;;4.66;78.76;100934.50;105816;1253;61248;-75
2023/03/29 03:43:35;;;;;;;6.80;3.50;;;;;;;4.63;79.11;100925.82;105835;1258;74765;-73
2023/03/29 03:46:02;;;;;;;5.30;3.40;;;;;;;4.62;79.43;100925.91;105834;1252;71692;-71
2023/03/29 03:48:29;;;;;;;5.00;3.40;;;;;;;4.59;80.29;100930.35;105738;1254;72145;-70
2023/03/29 03:50:57;;;;;;;6.10;3.90;;;;;;;4.58;80.59;100922.94;105908;1253;61858;-71
2023/03/29 03:53:26;;;;;;;5.90;3.70;;;;;;;4.57;80.73;100921.96;105837;1253;61283;-73
2023/03/29 03:55:56;;;;;;;7.60;3.80;;;;;;;4.55;81.44;100917.89;105881;1253;73815;-70
2023/03/29 03:58:23;;;;;;;6.50;3.90;;;;;;;4.55;81.51;100913.85;105894;1253;69671;-71
2023/03/29 04:00:50;;;;;;;6.00;4.00;;;;;;;4.55;81.77;100910.52;105695;1254;71138;-71
2023/03/29 04:03:17;;;;;;;7.90;4.10;;;;;;;4.56;81.61;100907.64;105616;1254;61198;-75
2023/03/29 04:05:45;;;;;;;5.80;4.10;;;;;;;4.57;81.72;100904.92;105833;1254;61290;-71
2023/03/29 04:08:13;;;;;;;6.90;4.00;;;;;;;4.59;81.52;100898.11;105647;1259;74967;-72
2023/03/29 04:10:39;;;;;;;7.50;3.80;;;;;;;4.61;81.39;100896.23;105812;1255;69773;-72
2023/03/29 04:13:06;;;;;;;6.20;4.10;;;;;;;4.61;81.67;100898.45;105860;1254;71327;-71
2023/03/29 04:15:37;;;;;;;7.50;3.90;;;;;;;4.62;81.85;100896.25;105636;1255;61299;-70
2023/03/29 04:18:06;;;;;;;6.60;4.10;;;;;;;4.63;81.90;100896.22;105773;1253;61354;-70
2023/03/29 04:20:34;;;;;;;6.50;4.10;;;;;;;4.62;82.56;100895.45;105921;1256;74878;-72
2023/03/29 04:23:00;;;;;;;6.40;4.70;;;;;;;4.60;83.01;100891.94;105883;1253;71202;-69
2023/03/29 04:25:28;;;;;;;6.60;4.20;;;;;;;4.59;83.08;100892.52;105736;1252;71649;-71
2023/03/29 04:27:55;;;;;;;6.60;4.50;;;;;;;4.59;82.94;100890.09;105794;1253;61235;-72
2023/03/29 04:30:22;;;;;;;6.80;4.00;;;;;;;4.59;82.91;100888.28;105741;1257;61371;-71
2023/03/29 04:32:49;;;;;;;7.40;4.60;;;;;;;4.59;83.11;100893.89;105794;1255;74153;-71
2023/03/29 04:35:16;;;;;;;7.60;4.50;;;;;;;4.56;83.85;100898.35;105878;1257;71032;-72
2023/03/29 04:37:43;;;;;;;7.70;4.20;;;;;;;4.54;84.10;100901.20;105726;1253;72682;-71
2023/03/29 04:40:13;;;;;;;6.00;4.30;;;;;;;4.54;84.00;100899.10;105824;1254;61497;-71
2023/03/29 04:42:44;;;;;;;6.10;4.20;;;;;;;4.53;84.14;100890.56;105647;1258;61859;-71
2023/03/29 04:45:16;;;;;;;6.90;4.20;;;;;;;4.53;84.32;100888.54;105865;1253;74200;-71
2023/03/29 04:47:44;;;;;;;8.80;4.50;;;;;;;4.52;84.30;100890.30;105781;1256;70117;-70
2023/03/29 04:50:12;;;;;;;5.70;4.30;;;;;;;4.52;84.31;100892.21;105831;1254;71273;-72
2023/03/29 04:52:40;;;;;;;8.50;4.20;;;;;;;4.52;84.62;100897.30;105773;1253;62226;-71
2023/03/29 04:55:08;;;;;;;8.40;4.20;;;;;;;4.52;84.89;100894.90;105919;1257;61240;-72
2023/03/29 04:57:34;;;;;;;6.20;4.50;;;;;;;4.50;85.03;100890.47;105860;1256;72908;-70
2023/03/29 05:00:07;;;;;;;8.00;4.60;;;;;;;4.52;84.94;100885.21;105819;1257;71212;-71
2023/03/29 05:02:33;;;;;;;8.60;4.10;;;;;;;4.52;84.96;100881.95;105800;1257;72526;-73
2023/03/29 05:05:00;;;;;;;7.80;4.00;;;;;;;4.53;84.73;100880.95;105641;1253;62539;-75
2023/03/29 05:07:26;;;;;;;7.50;4.20;;;;;;;4.54;85.16;100881.23;105686;1254;61243;-74
2023/03/29 05:09:53;;;;;;;7.90;4.20;;;;;;;4.54;85.12;100882.82;105753;1257;61711;-74
2023/03/29 05:12:20;;;;;;;7.10;4.30;;;;;;;4.55;85.03;100880.75;105733;1254;71273;-72
2023/03/29 05:14:46;;;;;;;6.70;4.30;;;;;;;4.56;85.19;100881.08;105514;1258;72838;-71
2023/03/29 05:17:13;;;;;;;7.70;4.20;;;;;;;4.56;85.09;100871.05;105860;1253;61762;-70
2023/03/29 05:19:40;;;;;;;9.30;4.30;;;;;;;4.57;85.07;100871.66;105796;1256;61337;-73
2023/03/29 05:22:07;;;;;;;7.00;4.30;;;;;;;4.59;85.06;100873.23;105817;1254;74378;-70
2023/03/29 05:24:34;;;;;;;7.10;4.80;;;;;;;4.61;85.10;100870.13;105776;1255;70394;-70
2023/03/29 05:27:01;;;;;;;5.40;3.40;;;;;;;4.63;84.76;100865.36;105845;1253;72435;-73
2023/03/29 05:29:27;;;;;;;8.70;4.30;;;;;;;4.65;84.74;100863.40;105731;1253;61376;-70
2023/03/29 05:31:54;;;;;;;6.60;4.70;;;;;;;4.66;84.70;100864.38;105720;1253;61243;-73
2023/03/29 05:34:21;;;;;;;6.90;4.70;;;;;;;4.67;84.81;100862.71;105739;1254;73510;-72
2023/03/29 05:36:47;;;;;;;8.70;4.50;;;;;;;4.69;84.73;100859.55;105681;1256;236757;-74
2023/03/29 05:39:14;;;;;;;6.60;4.30;;;;;;;4.72;84.79;100858.15;105756;1258;71996;-72
2023/03/29 05:41:41;;;;;;;7.40;4.50;;;;;;;4.74;84.82;100853.95;105765;1253;61625;-71
2023/03/29 05:44:08;;;;;;;7.80;4.70;;;;;;;4.76;84.58;100843.40;105476;1258;61234;-72
2023/03/29 05:46:37;;;;;;;6.70;4.60;;;;;;;4.80;84.40;100835.84;105741;1254;73516;-71
2023/03/29 05:49:05;;;;;;;7.90;4.50;;;;;;;4.84;84.27;100836.90;105707;1254;70874;-71
2023/03/29 05:51:32;;;;;;;5.90;4.40;;;;;;;4.86;84.34;100834.07;105757;1253;70625;-71
2023/03/29 05:53:58;;;;;;;5.80;4.70;;;;;;;4.92;84.24;100838.34;105719;1258;61270;-71
2023/03/29 05:56:25;;;;;;;6.80;4.80;;;;;;;4.96;84.25;100835.91;105785;1253;61258;-71
2023/03/29 05:58:55;;;;;;;6.20;4.80;;;;;;;5.00;84.13;100841.16;105813;1253;72439;-72
2023/03/29 06:01:23;;;;;;;8.70;4.90;;;;;;;5.04;83.96;100843.78;105782;1255;70093;-71
2023/03/29 06:03:50;;;;;;;7.00;5.00;;;;;;;5.07;83.82;100840.67;105741;1256;72702;-73
2023/03/29 06:06:18;;;;;;;7.40;5.40;;;;;;;5.10;83.94;100839.55;105774;1255;61274;-70
2023/03/29 06:08:45;;;;;;;6.80;5.00;;;;;;;5.13;83.88;100838.77;105785;1254;61217;-73
2023/03/29 06:11:12;;;;;;;8.10;5.40;;;;;;;5.16;83.74;100838.11;105913;1253;72823;-71
2023/03/29 06:13:40;;;;;;;8.00;5.00;;;;;;;5.21;83.74;100837.81;105657;1256;69741;-73
2023/03/29 06:16:08;;;;;;;8.80;5.70;;;;;;;5.26;83.71;100836.34;105829;1256;72400;-71
2023/03/29 06:18:38;;;;;;;7.00;4.90;;;;;;;5.32;83.51;100833.73;105529;1253;61268;-73
2023/03/29 06:21:07;;;;;;;7.30;5.00;;;;;;;5.38;83.45;100827.45;105727;1253;61324;-72
2023/03/29 06:23:35;;;;;;;9.60;5.50;;;;;;;5.43;83.17;100832.35;105765;1256;73642;-71
2023/03/29 06:26:03;;;;;;;8.40;5.40;;;;;;;5.51;83.09;100836.56;105558;1258;70051;-70
2023/03/29 06:28:29;;;;;;;8.30;6.00;;;;;;;5.58;82.65;100835.98;105877;1256;71166;-71
2023/03/29 06:31:00;;;;;;;8.60;5.50;;;;;;;5.63;82.50;100840.39;105901;1256;61237;-71
2023/03/29 06:33:29;;;;;;;7.60;5.40;;;;;;;5.71;82.24;100841.45;105952;1255;61760;-73
2023/03/29 06:35:56;;;;;;;7.20;4.90;;;;;;;5.76;82.15;100843.11;105970;1256;74376;-73
2023/03/29 06:38:25;;;;;;;8.70;4.90;;;;;;;5.81;81.56;100842.84;105873;1254;71005;-71
2023/03/29 06:40:59;;;;;;;8.40;4.80;;;;;;;5.85;81.42;100841.75;105848;1256;72538;-72
2023/03/29 06:43:26;;;;;;;7.50;5.00;;;;;;;5.88;81.03;100839.69;105812;1257;61316;-70
2023/03/29 06:45:53;;;;;;;8.50;5.50;;;;;;;5.97;81.09;100839.30;105673;1254;61200;-70
2023/03/29 06:48:20;;;;;;;8.90;4.90;;;;;;;6.06;80.82;100840.05;105769;1258;73458;-74
2023/03/29 06:50:48;;;;;;;7.90;5.10;;;;;;;6.14;80.37;100843.27;105798;1256;71197;-71
2023/03/29 06:53:15;;;;;;;6.90;4.70;;;;;;;6.22;79.66;100841.88;105829;1256;72699;-72
2023/03/29 06:55:42;;;;;;;6.90;5.20;;;;;;;6.29;79.29;100840.85;105858;1256;61562;-71
2023/03/29 06:58:09;;;;;;;6.30;4.60;;;;;;;6.36;79.16;100837.11;105878;1256;61221;-71
2023/03/29 07:00:38;;;;;;;6.50;4.60;;;;;;;6.47;78.92;100836.72;105823;1256;73613;-72
2023/03/29 07:03:08;;;;;;;9.00;4.80;;;;;;;6.63;78.54;100838.45;105703;1256;69836;-73
2023/03/29 07:05:39;;;;;;;6.40;4.30;;;;;;;6.73;77.74;100836.05;105891;1256;72115;-70
2023/03/29 07:10:46;;;;;;;7.50;4.90;;;;;;;6.94;77.27;100833.66;105794;1257;61154;-70
2023/03/29 07:13:14;;;;;;;6.10;4.30;;;;;;;7.05;76.55;100831.36;105835;1258;74674;-70
2023/03/29 07:15:42;;;;;;;6.50;4.20;;;;;;;7.12;75.70;100830.19;105830;1252;71151;-70
2023/03/29 07:18:09;;;;;;;6.30;4.10;;;;;;;7.19;75.36;100827.36;105788;1253;72419;-70
2023/03/29 07:20:37;;;;;;;5.90;3.70;;;;;;;7.22;74.55;100829.60;105760;1253;62227;-70
2023/03/29 07:23:04;;;;;;;6.80;4.40;;;;;;;7.28;74.92;100827.94;105729;1257;61241;-73
2023/03/29 07:25:32;;;;;;;7.30;4.10;;;;;;;7.32;74.37;100832.27;105530;1255;74351;-73
2023/03/29 07:27:59;;;;;;;5.80;4.10;;;;;;;7.33;74.00;100836.88;105874;1257;69939;-70
2023/03/29 07:30:28;;;;;;;6.40;4.20;;;;;;;7.27;73.70;100832.59;105837;1258;71243;-70
2023/03/29 07:32:58;;;;;;;6.10;4.30;;;;;;;7.23;73.74;100837.95;105846;1255;63032;-72
2023/03/29 07:35:27;;;;;;;7.00;4.20;;;;;;;7.23;73.71;100833.70;105830;1256;61331;-71
2023/03/29 07:37:54;;;;;;;6.60;4.00;;;;;;;7.28;73.54;100834.44;105980;1253;73133;-71
2023/03/29 07:40:24;;;;;;;6.60;3.90;;;;;;;7.34;73.07;100828.76;105890;1252;71119;-70
2023/03/29 07:42:55;;;;;;;5.50;4.20;;;;;;;7.44;73.06;100825.30;105532;1254;71552;-70
2023/03/29 07:45:24;;;;;;;5.90;3.80;;;;;;;7.58;73.09;100829.21;105555;1254;61348;-70
2023/03/29 07:47:58;;;;;;;5.80;4.20;;;;;;;7.70;72.65;100830.11;105812;1257;61336;-71
2023/03/29 07:50:31;;;;;;;6.00;3.90;;;;;;;7.80;72.61;100828.23;105546;1258;74767;-71
2023/03/29 07:52:59;;;;;;;6.10;3.80;;;;;;;7.90;72.28;100830.08;105685;1256;68988;-72
2023/03/29 07:55:26;;;;;;;6.80;4.00;;;;;;;7.89;71.57;100833.20;105796;1253;71271;-71
2023/03/29 07:57:53;;;;;;;7.60;3.80;;;;;;;7.90;71.70;100836.09;105768;1256;61371;-71
2023/03/29 08:00:21;;;;;;;6.60;3.80;;;;;;;7.90;71.20;100837.14;105867;1258;61252;-71
2023/03/29 08:02:51;;;;;;;9.00;4.30;;;;;;;7.88;71.05;100836.64;105483;1260;74143;-74
2023/03/29 08:05:20;;;;;;;6.50;4.10;;;;;;;7.80;70.74;100840.44;105799;1256;69854;-72
2023/03/29 08:08:08;;;;;;;6.00;3.90;;;;;;;7.79;71.22;100844.73;105636;1253;71225;-71
2023/03/29 08:10:37;;;;;;;6.70;3.70;;;;;;;7.80;71.16;100845.74;105888;1258;61281;-71
2023/03/29 08:13:07;;;;;;;7.40;4.20;;;;;;;7.85;71.63;100846.66;105583;1260;61215;-71
2023/03/29 08:15:36;;;;;;;6.70;4.00;;;;;;;7.86;71.21;100845.23;105847;1257;73360;-70
2023/03/29 08:18:04;;;;;;;6.40;3.80;;;;;;;7.90;71.31;100843.29;105995;1256;70661;-74
2023/03/29 08:20:31;;;;;;;7.40;3.80;;;;;;;7.93;70.82;100839.41;105579;1253;72456;-72
2023/03/29 08:22:58;;;;;;;7.30;4.30;;;;;;;7.98;70.58;100841.95;105781;1253;61249;-72
2023/03/29 08:25:24;;;;;;;6.30;4.10;;;;;;;7.97;70.32;100839.41;106034;1253;61267;-71
2023/03/29 08:27:52;;;;;;;6.80;3.80;;;;;;;8.05;71.02;100834.73;105718;1255;74776;-73
2023/03/29 08:30:18;;;;;;;6.10;4.00;;;;;;;8.19;70.89;100837.88;105757;1256;69881;-70
2023/03/29 08:32:45;;;;;;;5.30;3.80;;;;;;;8.23;69.76;100841.89;105927;1255;73610;-72
2023/03/29 08:35:17;;;;;;;6.70;3.80;;;;;;;8.25;69.57;100844.05;105870;1257;61453;-72
2023/03/29 08:37:43;;;;;;;7.50;4.40;;;;;;;8.32;69.46;100838.02;105857;1254;61424;-71
2023/03/29 08:40:25;;;;;;;5.80;3.50;;;;;;;8.40;69.67;100833.48;105779;1258;61359;-72
2023/03/29 08:43:07;;;;;;;6.10;4.10;;;;;;;8.51;69.57;100840.06;105794;1253;69298;-73
2023/03/29 08:45:37;;;;;;;6.80;4.00;;;;;;;8.55;69.08;100838.48;105754;1257;72376;-71
2023/03/29 08:48:04;;;;;;;6.30;3.80;;;;;;;8.60;69.13;100836.38;105720;1254;61364;-70
2023/03/29 08:50:38;;;;;;;6.90;4.30;;;;;;;8.68;69.03;100834.02;105698;1257;61209;-73
2023/03/29 08:53:11;;;;;;;7.30;3.80;;;;;;;8.68;68.59;100836.80;105862;1255;73311;-69
2023/03/29 08:55:58;;;;;;;7.30;4.40;;;;;;;8.72;68.84;100835.52;105822;1258;69684;-70
2023/03/29 08:58:31;;;;;;;5.50;4.20;;;;;;;8.79;68.98;100831.59;105771;1255;71492;-70
2023/03/29 09:00:59;;;;;;;5.10;3.80;;;;;;;8.77;68.24;100839.21;105757;1257;61296;-69
2023/03/29 09:03:47;;;;;;;8.60;4.20;;;;;;;8.80;68.41;100830.60;105763;1254;61257;-72
2023/03/29 09:06:18;;;;;;;6.40;3.80;;;;;;;8.81;68.10;100831.06;105734;1258;72243;-70
2023/03/29 09:08:47;;;;;;;6.50;3.90;;;;;;;8.82;68.04;100828.69;105827;1257;69643;-70
2023/03/29 09:11:26;;;;;;;6.40;3.70;;;;;;;8.86;67.98;100822.23;105779;1258;72532;-69
2023/03/29 09:14:13;;;;;;;8.00;3.80;;;;;;;8.97;68.21;100822.09;105815;1253;61334;-69
2023/03/29 09:16:55;;;;;;;5.90;3.90;;;;;;;9.10;67.97;100824.81;105942;1253;61372;-70
2023/03/29 09:20:00;;;;;;;6.50;3.60;;;;;;;9.17;67.44;100823.70;105901;1255;73473;-70
2023/03/29 09:22:40;;;;;;;8.00;4.30;;;;;;;9.11;66.62;100826.46;105315;1253;71530;-71
2023/03/29 09:25:23;;;;;;;7.40;4.10;;;;;;;9.10;66.91;100824.70;105833;1253;71793;-70
2023/03/29 09:28:24;;;;;;;6.00;3.60;;;;;;;8.99;67.06;100830.03;105823;1254;61772;-71
2023/03/29 09:30:58;;;;;;;6.10;3.90;;;;;;;8.94;67.70;100829.62;105781;1258;62066;-74
2023/03/29 09:33:36;;;;;;;6.40;3.80;;;;;;;8.89;67.89;100830.70;105909;1257;73575;-70
2023/03/29 09:36:22;;;;;;;6.00;3.90;;;;;;;8.86;68.20;100827.84;105767;1258;69415;-76
2023/03/29 09:38:53;;;;;;;5.60;3.80;;;;;;;8.91;68.70;100826.40;105883;1256;72429;-70
2023/03/29 09:41:33;;;;;;;7.10;4.20;;;;;;;8.93;68.36;100825.90;105770;1253;61774;-73
2023/03/29 09:44:06;;;;;;;6.90;4.20;;;;;;;8.91;68.50;100826.11;105873;1256;61310;-72
2023/03/29 09:46:54;;;;;;;5.50;4.00;;;;;;;8.92;68.80;100826.98;105828;1258;74464;-73
2023/03/29 09:49:27;;;;;;;6.60;4.20;;;;;;;8.96;68.58;100825.09;105737;1253;70995;-69
2023/03/29 09:51:58;;;;;;;6.60;3.70;;;;;;;9.02;68.84;100824.25;105765;1258;72459;-70
2023/03/29 09:54:25;;;;;;;8.10;4.10;;;;;;;9.09;68.69;100820.83;105704;1258;62450;-70
2023/03/29 09:56:52;;;;;;;6.30;4.10;;;;;;;9.18;68.19;100815.19;105735;1253;63010;-71
2023/03/29 09:59:20;;;;;;;6.00;4.00;;;;;;;9.29;68.36;100819.08;105758;1258;73504;-71
2023/03/29 10:01:47;;;;;;;6.30;3.80;;;;;;;9.38;67.98;100816.41;105802;1253;70929;-69
2023/03/29 10:04:15;;;;;;;5.90;3.50;;;;;;;9.41;67.73;100810.98;105863;1253;71429;-68
2023/03/29 10:06:48;;;;;;;6.40;3.90;;;;;;;9.46;68.13;100805.52;105851;1258;61891;-70
2023/03/29 10:09:23;;;;;;;6.50;4.30;;;;;;;9.52;67.88;100807.14;105817;1253;61360;-69
2023/03/29 10:11:56;;;;;;;6.10;4.10;;;;;;;9.55;67.85;100798.70;105848;1253;73665;-70
2023/03/29 10:14:45;;;;;;;6.10;4.00;;;;;;;9.61;67.94;100796.09;105827;1256;70428;-68
2023/03/29 10:17:20;;;;;;;7.10;4.00;;;;;;;9.74;68.34;100790.29;105803;1258;71127;-71
2023/03/29 10:19:54;;;;;;;7.00;4.00;;;;;;;9.80;68.38;100798.14;105623;1255;61260;-69
2023/03/29 10:22:23;;;;;;;6.40;3.60;;;;;;;9.75;68.41;100798.80;105768;1259;61344;-70
2023/03/29 10:24:52;;;;;;;6.90;3.90;;;;;;;9.69;68.47;100794.73;105718;1256;73522;-71
2023/03/29 10:27:24;;;;;;;6.10;4.10;;;;;;;9.65;68.95;100799.70;105798;1258;71020;-73
2023/03/29 10:29:52;;;;;;;5.10;3.60;;;;;;;9.72;69.40;100794.06;105700;1257;71499;-71
2023/03/29 10:32:27;;;;;;;6.10;3.40;;;;;;;9.83;69.26;100797.55;105557;1258;61299;-71
2023/03/29 10:34:58;;;;;;;5.80;3.60;;;;;;;9.88;68.71;100800.73;105761;1257;61270;-71
2023/03/29 10:37:27;;;;;;;5.40;3.30;;;;;;;9.86;69.10;100802.96;105768;1257;73299;-72
2023/03/29 10:39:53;;;;;;;5.40;3.00;;;;;;;9.78;70.53;100803.77;105651;1258;70952;-72
2023/03/29 10:42:23;;;;;;;5.30;3.40;;;;;;;9.72;71.22;100801.58;105449;1256;72443;-73
2023/03/29 10:44:58;;;;;;;5.60;3.50;;;;;;;9.80;71.65;100799.52;105438;1253;62730;-73
2023/03/29 10:47:33;;;;;;;4.70;3.50;;;;;;;9.97;71.46;100795.06;105887;1254;61343;-71
2023/03/29 10:50:00;;;;;;;6.10;3.70;;;;;;;10.19;70.77;100790.84;105406;1256;72983;-73
2023/03/29 10:52:28;;;;;;;5.20;3.50;;;;;;;10.33;69.80;100792.98;105869;1258;69949;-72
2023/03/29 10:54:55;;;;;;;5.20;3.10;;;;;;;10.38;70.29;100798.63;105733;1256;72723;-71
2023/03/29 10:57:39;;;;;;;5.80;3.30;;;;;;;10.45;70.45;100789.52;105888;1254;61722;-72
2023/03/29 11:00:38;;;;;;;6.50;3.50;;;;;;;10.65;70.24;100783.27;105504;1256;61685;-72
2023/03/29 11:03:43;;;;;;;6.70;3.70;;;;;;;10.73;69.76;100769.23;105643;1256;74578;-71
2023/03/29 11:06:27;;;;;;;7.20;3.80;;;;;;;10.86;69.81;100762.61;105811;1255;71174;-74
2023/03/29 11:09:39;;;;;;;6.20;3.30;;;;;;;10.98;69.45;100758.25;105476;1253;73320;-71
2023/03/29 11:12:27;;;;;;;6.80;3.80;;;;;;;11.22;69.04;100754.33;105543;1258;61354;-74
2023/03/29 11:15:10;;;;;;;7.60;4.50;;;;;;;11.27;68.30;100754.08;105787;1253;61366;-72
2023/03/29 11:17:52;;;;;;;9.70;5.00;;;;;;;11.27;68.30;100756.41;105663;1258;73098;-72
2023/03/29 11:20:23;;;;;;;6.40;4.30;;;;;;;11.24;67.95;100746.41;105867;1256;72461;-73
2023/03/29 11:22:59;;;;;;;7.90;4.70;;;;;;;11.35;68.05;100745.52;105915;1252;72656;-75
2023/03/29 11:25:41;;;;;;;7.00;4.00;;;;;;;11.59;67.14;100744.52;105734;1258;61322;-72
2023/03/29 11:28:23;;;;;;;8.80;4.30;;;;;;;11.87;66.04;100747.82;105718;1256;61400;-72
2023/03/29 11:31:00;;;;;;;9.30;4.90;;;;;;;11.89;65.11;100750.05;105499;1258;74818;-76
2023/03/29 11:33:42;;;;;;;8.20;4.30;;;;;;;11.93;65.08;100750.30;105854;1257;69954;-72
2023/03/29 11:36:12;;;;;;;8.50;4.00;;;;;;;12.14;64.18;100754.67;105658;1258;71603;-73
2023/03/29 11:38:59;;;;;;;6.20;4.20;;;;;;;12.29;63.60;100753.79;105752;1258;61241;-72
2023/03/29 11:41:37;;;;;;;8.50;4.00;;;;;;;12.40;63.45;100754.08;105626;1258;61661;-72
2023/03/29 11:44:29;;;;;;;8.30;5.00;;;;;;;12.43;63.62;100757.96;105421;1255;74381;-71
2023/03/29 11:47:21;;;;;;;8.20;4.50;;;;;;;12.42;63.42;100755.91;105807;1256;70929;-72
2023/03/29 11:50:30;;;;;;;7.70;4.30;;;;;;;12.44;63.98;100754.96;105798;1254;72299;-71